Time;durP1;ratioP1;P1;durP2;ratioP2;P2;SDS_P1;SDS_P2;PMS_P1;PMS_P2;Temp;Humidity;BMP_temperature;BMP_pressure;BME280_temperature;BME280_humidity;BME280_pressure;Samples;Min_cycle;Max_cycle;Signal;HPM_P1;HPM_P2
2022/06/26 00:00:46;;;;;;;;;;;20.70;73.60;;;;;;5021609;28;19929;-85
2022/06/26 00:03:12;;;;;;;;;;;20.60;73.90;;;;;;5038112;28;19917;-85
2022/06/26 00:05:37;;;;;;;;;;;20.60;74.20;;;;;;5036823;28;19939;-85
2022/06/26 00:08:03;;;;;;;;;;;20.70;71.10;;;;;;5035032;28;19921;-83
2022/06/26 00:10:28;;;;;;;;;;;20.90;69.60;;;;;;5010301;28;19917;-84
2022/06/26 00:12:54;;;;;;;;;;;21.00;69.80;;;;;;5030352;28;19920;-84
2022/06/26 00:15:19;;;;;;;;;;;21.10;69.40;;;;;;5015277;28;20372;-84
2022/06/26 00:17:44;;;;;;;;;;;21.20;68.70;;;;;;5030488;28;19913;-84
2022/06/26 00:20:10;;;;;;;;;;;21.20;68.70;;;;;;5030898;28;19956;-84
2022/06/26 00:22:36;;;;;;;;;;;21.30;69.40;;;;;;5032583;28;19940;-82
2022/06/26 00:25:01;;;;;;;;;;;21.30;69.90;;;;;;5024474;28;19939;-82
2022/06/26 00:27:27;;;;;;;;;;;21.20;71.20;;;;;;5012683;28;19921;-82
2022/06/26 00:29:52;;;;;;;;;;;21.10;72.40;;;;;;5033078;28;20532;-82
2022/06/26 00:32:18;;;;;;;;;;;21.10;73.10;;;;;;5023341;28;19918;-82
2022/06/26 00:34:43;;;;;;;;;;;21.00;73.70;;;;;;5031462;28;19913;-82
2022/06/26 00:37:09;;;;;;;;;;;20.90;74.30;;;;;;5034829;28;20032;-82
2022/06/26 00:39:34;;;;;;;;;;;20.80;74.90;;;;;;5032875;28;19921;-82
2022/06/26 00:42:00;;;;;;;;;;;20.70;75.20;;;;;;5015054;28;19920;-82
2022/06/26 00:44:26;;;;;;;;;;;20.70;75.40;;;;;;5016623;28;20022;-82
2022/06/26 00:46:52;;;;;;;;;;;20.60;75.90;;;;;;5018312;28;19917;-82
2022/06/26 00:49:17;;;;;;;;;;;20.60;76.20;;;;;;5033326;28;19925;-82
2022/06/26 00:51:47;;;;;;;;;;;20.50;76.70;;;;;;5019171;28;19935;-82
2022/06/26 00:54:13;;;;;;;;;;;20.50;76.80;;;;;;5016252;28;19952;-82
2022/06/26 00:56:39;;;;;;;;;;;20.50;77.00;;;;;;5037583;28;19917;-83
2022/06/26 00:59:05;;;;;;;;;;;20.50;77.10;;;;;;5041277;28;19913;-83
2022/06/26 01:01:31;;;;;;;;;;;20.50;77.20;;;;;;5038909;28;20347;-83
2022/06/26 01:03:57;;;;;;;;;;;20.50;76.80;;;;;;5031745;28;19924;-82
2022/06/26 01:06:23;;;;;;;;;;;20.60;76.50;;;;;;5030714;28;20571;-83
2022/06/26 01:08:49;;;;;;;;;;;20.50;76.90;;;;;;5022364;28;19913;-83
2022/06/26 01:11:17;;;;;;;;;;;20.50;77.10;;;;;;5020430;28;19913;-83
2022/06/26 01:13:44;;;;;;;;;;;20.50;76.90;;;;;;5022895;28;19944;-83
2022/06/26 01:16:09;;;;;;;;;;;20.50;77.00;;;;;;5016199;28;19913;-83
2022/06/26 01:18:35;;;;;;;;;;;20.50;76.70;;;;;;5037804;28;20369;-83
2022/06/26 01:21:00;;;;;;;;;;;20.50;76.50;;;;;;5038859;28;19996;-83
2022/06/26 01:23:26;;;;;;;;;;;20.50;76.80;;;;;;5036607;28;19913;-83
2022/06/26 01:25:52;;;;;;;;;;;20.50;76.70;;;;;;5035781;28;20271;-83
2022/06/26 01:28:17;;;;;;;;;;;20.50;76.70;;;;;;5038211;28;19913;-83
2022/06/26 01:30:43;;;;;;;;;;;20.50;77.00;;;;;;5037507;28;19913;-83
2022/06/26 01:33:08;;;;;;;;;;;20.60;77.00;;;;;;5017613;28;20292;-83
2022/06/26 01:35:34;;;;;;;;;;;20.50;77.10;;;;;;5019747;28;19975;-83
2022/06/26 01:38:13;;;;;;;;;;;20.40;77.40;;;;;;5036193;28;19921;-83
2022/06/26 01:40:39;;;;;;;;;;;20.50;77.40;;;;;;5019158;28;20000;-82
2022/06/26 01:43:04;;;;;;;;;;;20.40;77.50;;;;;;5033579;28;19960;-83
2022/06/26 01:45:30;;;;;;;;;;;20.30;78.00;;;;;;5034837;28;19917;-83
2022/06/26 01:47:55;;;;;;;;;;;20.30;78.20;;;;;;5026409;28;19909;-83
2022/06/26 01:50:21;;;;;;;;;;;20.30;78.20;;;;;;5017066;28;19920;-83
2022/06/26 01:52:46;;;;;;;;;;;20.20;78.20;;;;;;5016529;28;19913;-83
2022/06/26 01:55:11;;;;;;;;;;;20.10;78.50;;;;;;5015050;28;20291;-83
2022/06/26 01:57:37;;;;;;;;;;;20.10;78.60;;;;;;5018495;28;20186;-83
2022/06/26 02:00:06;;;;;;;;;;;20.10;78.60;;;;;;5016665;28;19921;-82
2022/06/26 02:02:31;;;;;;;;;;;20.00;79.00;;;;;;5017702;28;20003;-83
2022/06/26 02:04:58;;;;;;;;;;;20.00;79.30;;;;;;5031600;28;19963;-82
2022/06/26 02:07:24;;;;;;;;;;;19.90;79.40;;;;;;5036322;28;20360;-83
2022/06/26 02:15:18;;;;;;;;;;;19.90;79.30;;;;;;5028699;28;19928;-83
2022/06/26 02:17:44;;;;;;;;;;;19.80;79.30;;;;;;5017514;28;19925;-83
2022/06/26 02:20:10;;;;;;;;;;;19.80;79.40;;;;;;5014278;28;20007;-83
2022/06/26 02:22:35;;;;;;;;;;;19.80;79.50;;;;;;5017816;28;19975;-83
2022/06/26 02:25:01;;;;;;;;;;;19.80;79.70;;;;;;5023374;28;19980;-83
2022/06/26 02:27:26;;;;;;;;;;;19.70;79.90;;;;;;5016792;28;19916;-83
2022/06/26 02:29:52;;;;;;;;;;;19.70;80.00;;;;;;5030822;28;19928;-83
2022/06/26 02:32:17;;;;;;;;;;;19.60;80.20;;;;;;5023584;28;19913;-83
2022/06/26 02:34:43;;;;;;;;;;;19.60;80.40;;;;;;5036874;28;19924;-83
2022/06/26 02:37:08;;;;;;;;;;;19.70;80.30;;;;;;5020519;28;20006;-83
2022/06/26 02:39:33;;;;;;;;;;;19.70;80.30;;;;;;5031517;28;19921;-83
2022/06/26 02:41:59;;;;;;;;;;;19.60;80.40;;;;;;5028287;28;20031;-82
2022/06/26 02:44:24;;;;;;;;;;;19.60;80.60;;;;;;5027488;28;19921;-83
2022/06/26 02:46:50;;;;;;;;;;;19.60;80.70;;;;;;5029866;28;19917;-84
2022/06/26 02:49:16;;;;;;;;;;;19.70;80.40;;;;;;5027497;28;19913;-83
2022/06/26 02:51:41;;;;;;;;;;;19.60;80.30;;;;;;5014701;28;20375;-83
2022/06/26 02:54:07;;;;;;;;;;;19.60;80.60;;;;;;5029300;28;20398;-83
2022/06/26 02:56:32;;;;;;;;;;;19.50;80.90;;;;;;5013766;28;20302;-83
2022/06/26 02:58:57;;;;;;;;;;;19.50;81.30;;;;;;5033080;28;19921;-83
2022/06/26 03:01:23;;;;;;;;;;;19.50;81.40;;;;;;5028369;28;19987;-83
2022/06/26 03:03:48;;;;;;;;;;;19.40;81.20;;;;;;5029917;28;19925;-83
2022/06/26 03:06:14;;;;;;;;;;;19.40;81.50;;;;;;5029950;28;19913;-83
2022/06/26 03:08:39;;;;;;;;;;;19.40;81.30;;;;;;5032635;28;19913;-83
2022/06/26 03:11:05;;;;;;;;;;;19.40;81.40;;;;;;5014317;28;19913;-82
2022/06/26 03:13:30;;;;;;;;;;;19.40;81.20;;;;;;5030801;28;20371;-83
2022/06/26 03:15:55;;;;;;;;;;;19.50;81.00;;;;;;5013974;28;20133;-83
2022/06/26 03:18:21;;;;;;;;;;;19.50;81.00;;;;;;5030485;28;19921;-83
2022/06/26 03:20:46;;;;;;;;;;;19.60;80.60;;;;;;5013582;28;19940;-83
2022/06/26 03:23:12;;;;;;;;;;;19.50;80.80;;;;;;5012797;28;21470;-83
2022/06/26 03:25:37;;;;;;;;;;;19.50;80.70;;;;;;5013622;28;19917;-84
2022/06/26 03:28:03;;;;;;;;;;;19.40;81.00;;;;;;5010302;28;19913;-84
2022/06/26 03:30:28;;;;;;;;;;;19.30;81.00;;;;;;5014903;28;19956;-84
2022/06/26 03:32:54;;;;;;;;;;;19.30;81.20;;;;;;5018001;28;19913;-84
2022/06/26 03:35:19;;;;;;;;;;;19.30;81.20;;;;;;5019265;28;19923;-84
2022/06/26 03:37:45;;;;;;;;;;;19.30;81.40;;;;;;5039078;28;19917;-84
2022/06/26 03:40:10;;;;;;;;;;;19.30;81.20;;;;;;5038439;28;20307;-84
2022/06/26 03:42:36;;;;;;;;;;;19.30;81.50;;;;;;5023781;28;19921;-84
2022/06/26 03:45:03;;;;;;;;;;;19.30;81.20;;;;;;5030174;28;19956;-84
2022/06/26 03:47:28;;;;;;;;;;;19.40;81.10;;;;;;5040974;28;19913;-84
2022/06/26 03:49:54;;;;;;;;;;;19.40;80.90;;;;;;5023209;28;19913;-84
2022/06/26 03:52:20;;;;;;;;;;;19.40;80.80;;;;;;5021472;28;20011;-84
2022/06/26 03:54:46;;;;;;;;;;;19.40;81.00;;;;;;5042975;28;19924;-84
2022/06/26 03:57:11;;;;;;;;;;;19.40;81.10;;;;;;5049691;28;19957;-84
2022/06/26 03:59:37;;;;;;;;;;;19.40;81.10;;;;;;5045153;28;19925;-84
2022/06/26 04:02:03;;;;;;;;;;;19.40;81.20;;;;;;5026479;28;19917;-84
2022/06/26 04:04:28;;;;;;;;;;;19.30;81.30;;;;;;5026301;28;20260;-84
2022/06/26 04:06:54;;;;;;;;;;;19.30;81.80;;;;;;5040649;28;19943;-83
2022/06/26 04:09:19;;;;;;;;;;;19.30;81.30;;;;;;5023429;28;19988;-84
2022/06/26 04:11:45;;;;;;;;;;;19.20;81.70;;;;;;5024873;28;19920;-83
2022/06/26 04:14:10;;;;;;;;;;;19.20;81.60;;;;;;5040550;28;19928;-84
2022/06/26 04:16:36;;;;;;;;;;;19.10;82.00;;;;;;5034682;28;19913;-83
2022/06/26 04:19:02;;;;;;;;;;;19.20;81.90;;;;;;5056838;28;19913;-84
2022/06/26 04:21:27;;;;;;;;;;;19.10;81.90;;;;;;5048940;28;19913;-84
2022/06/26 04:23:53;;;;;;;;;;;19.10;81.90;;;;;;5043605;28;19917;-83
2022/06/26 04:26:18;;;;;;;;;;;19.20;81.80;;;;;;5025620;28;19936;-84
2022/06/26 04:28:43;;;;;;;;;;;19.20;82.00;;;;;;5031690;28;19921;-84
2022/06/26 04:31:09;;;;;;;;;;;19.20;81.70;;;;;;5042223;28;19959;-84
2022/06/26 04:33:34;;;;;;;;;;;19.10;81.80;;;;;;5043400;28;19925;-84
2022/06/26 04:36:00;;;;;;;;;;;19.10;82.00;;;;;;5041680;28;20367;-84
2022/06/26 04:38:25;;;;;;;;;;;19.20;81.90;;;;;;5046978;28;19913;-84
2022/06/26 04:40:51;;;;;;;;;;;19.20;81.80;;;;;;5040140;28;20074;-84
2022/06/26 04:43:16;;;;;;;;;;;19.30;81.50;;;;;;5043678;28;19921;-84
2022/06/26 04:45:42;;;;;;;;;;;19.30;81.30;;;;;;5039604;28;19917;-84
2022/06/26 04:48:07;;;;;;;;;;;19.30;81.40;;;;;;5043199;28;19914;-84
2022/06/26 04:50:33;;;;;;;;;;;19.40;81.20;;;;;;5029412;28;19913;-84
2022/06/26 04:52:59;;;;;;;;;;;19.50;80.60;;;;;;5023831;28;19913;-84
2022/06/26 04:55:24;;;;;;;;;;;19.40;80.50;;;;;;5021488;28;19925;-84
2022/06/26 04:57:50;;;;;;;;;;;19.50;80.30;;;;;;5039430;28;19913;-84
2022/06/26 05:00:16;;;;;;;;;;;19.50;80.00;;;;;;5071661;22;19936;-83
2022/06/26 05:02:41;;;;;;;;;;;19.50;79.80;;;;;;5025068;28;19917;-83
2022/06/26 05:05:07;;;;;;;;;;;19.60;79.80;;;;;;5021313;28;19917;-83
2022/06/26 05:07:33;;;;;;;;;;;19.70;79.30;;;;;;5006390;28;20290;-83
2022/06/26 05:09:59;;;;;;;;;;;19.80;78.80;;;;;;5033642;28;19913;-82
2022/06/26 05:12:25;;;;;;;;;;;19.80;78.70;;;;;;4995469;28;20384;-82
2022/06/26 05:14:50;;;;;;;;;;;19.90;78.20;;;;;;4996136;28;19917;-85
2022/06/26 05:17:18;;;;;;;;;;;19.90;78.10;;;;;;5013798;28;19921;-82
2022/06/26 05:19:44;;;;;;;;;;;20.00;77.20;;;;;;4991603;28;19914;-82
2022/06/26 05:22:09;;;;;;;;;;;20.10;77.20;;;;;;4996793;28;19918;-83
2022/06/26 05:24:38;;;;;;;;;;;20.10;76.80;;;;;;4997902;28;19938;-82
2022/06/26 05:27:04;;;;;;;;;;;20.10;76.10;;;;;;4996488;28;19913;-82
2022/06/26 05:29:30;;;;;;;;;;;20.20;76.00;;;;;;4999263;28;20376;-82
2022/06/26 05:31:55;;;;;;;;;;;20.20;76.30;;;;;;4994985;28;19968;-82
2022/06/26 05:34:23;;;;;;;;;;;20.20;76.20;;;;;;5016053;28;19922;-83
2022/06/26 05:36:49;;;;;;;;;;;20.20;76.20;;;;;;4999938;28;19993;-83
2022/06/26 05:39:14;;;;;;;;;;;20.50;75.50;;;;;;4997083;28;21917;-82
2022/06/26 05:41:42;;;;;;;;;;;20.50;75.50;;;;;;4994993;28;19913;-83
2022/06/26 05:44:08;;;;;;;;;;;20.60;74.90;;;;;;5003059;28;19979;-83
2022/06/26 05:46:33;;;;;;;;;;;20.70;74.20;;;;;;5013347;28;19933;-83
2022/06/26 05:48:59;;;;;;;;;;;20.70;73.80;;;;;;5002457;28;19920;-82
2022/06/26 05:51:24;;;;;;;;;;;20.70;74.00;;;;;;5013151;28;19918;-83
2022/06/26 05:53:50;;;;;;;;;;;20.70;74.00;;;;;;5000947;28;20068;-83
2022/06/26 05:56:15;;;;;;;;;;;20.60;74.10;;;;;;5001607;28;20384;-82
2022/06/26 05:58:41;;;;;;;;;;;20.60;74.20;;;;;;5003656;28;20000;-82
2022/06/26 06:01:06;;;;;;;;;;;20.50;74.60;;;;;;5020217;28;19917;-83
2022/06/26 06:03:32;;;;;;;;;;;20.40;74.90;;;;;;4991927;28;20008;-84
2022/06/26 06:05:58;;;;;;;;;;;20.50;75.10;;;;;;5005653;28;19988;-83
2022/06/26 06:08:23;;;;;;;;;;;20.50;75.30;;;;;;4994638;28;19913;-82
2022/06/26 06:10:52;;;;;;;;;;;20.50;75.10;;;;;;4997883;28;19913;-82
2022/06/26 06:13:18;;;;;;;;;;;20.60;74.90;;;;;;5028757;28;20489;-83
2022/06/26 06:15:44;;;;;;;;;;;20.60;74.80;;;;;;5023545;28;19910;-83
2022/06/26 06:18:12;;;;;;;;;;;20.60;74.70;;;;;;5033888;28;19920;-83
2022/06/26 06:21:10;;;;;;;;;;;20.60;74.40;;;;;;5016386;28;19913;-83
2022/06/26 06:23:52;;;;;;;;;;;20.50;73.70;;;;;;5019697;28;19914;-82
2022/06/26 06:26:27;;;;;;;;;;;20.30;74.00;;;;;;5007368;28;19928;-83
2022/06/26 06:30:00;;;;;;;;;;;20.30;74.10;;;;;;4999467;28;20058;-83
2022/06/26 06:32:33;;;;;;;;;;;20.40;74.20;;;;;;5014696;28;19917;-83
2022/06/26 06:38:42;;;;;;;;;;;;;;;;;;;;;
2022/06/26 06:41:24;;;;;;;;;;;20.50;72.90;;;;;;4978546;28;20412;-83
2022/06/26 06:44:36;;;;;;;;;;;20.50;72.20;;;;;;4972339;28;19945;-82
2022/06/26 06:47:05;;;;;;;;;;;20.40;72.80;;;;;;4920267;29;20074;-82
2022/06/26 06:53:24;;;;;;;;;;;20.40;73.10;;;;;;4916399;29;19931;-83
2022/06/26 06:56:02;;;;;;;;;;;20.40;73.40;;;;;;4985348;28;20044;-83
2022/06/26 06:58:43;;;;;;;;;;;20.50;72.60;;;;;;4998389;28;19920;-84
2022/06/26 07:04:46;;;;;;;;;;;20.40;72.20;;;;;;5015576;28;20458;-84
2022/06/26 07:08:13;;;;;;;;;;;20.40;72.40;;;;;;4988591;28;19921;-82
2022/06/26 07:11:01;;;;;;;;;;;20.40;72.50;;;;;;4974874;28;20029;-83
2022/06/26 07:13:48;;;;;;;;;;;20.30;72.70;;;;;;4984146;28;19945;-84
2022/06/26 07:16:18;;;;;;;;;;;20.30;72.80;;;;;;4993908;28;19918;-85
2022/06/26 07:18:54;;;;;;;;;;;20.30;73.10;;;;;;4995484;28;19929;-84
2022/06/26 07:21:19;;;;;;;;;;;20.20;73.10;;;;;;4994625;28;19954;-85
2022/06/26 07:23:50;;;;;;;;;;;20.30;71.60;;;;;;4997417;28;20562;-90
2022/06/26 07:26:22;;;;;;;;;;;20.30;71.30;;;;;;4984704;28;20432;-87
2022/06/26 07:28:48;;;;;;;;;;;20.40;71.10;;;;;;5002321;28;19984;-86
2022/06/26 07:31:13;;;;;;;;;;;20.40;70.90;;;;;;4995626;28;19914;-88
2022/06/26 07:36:23;;;;;;;;;;;20.40;70.20;;;;;;5007728;28;19921;-85
2022/06/26 07:38:48;;;;;;;;;;;20.40;70.40;;;;;;4994691;28;19918;-88
2022/06/26 07:41:41;;;;;;;;;;;20.50;70.00;;;;;;4996486;28;20037;-88
2022/06/26 07:44:36;;;;;;;;;;;20.50;69.90;;;;;;4974856;28;19990;-88
2022/06/26 07:47:01;;;;;;;;;;;20.60;70.00;;;;;;4942780;28;19922;-88
2022/06/26 07:49:27;;;;;;;;;;;21.10;69.60;;;;;;4991216;28;19913;-89
2022/06/26 07:51:58;;;;;;;;;;;21.20;69.10;;;;;;5015526;28;19916;-91
2022/06/26 07:54:26;;;;;;;;;;;21.10;68.30;;;;;;4995301;28;19952;-86
2022/06/26 07:56:51;;;;;;;;;;;21.10;67.90;;;;;;5008793;28;20380;-88
2022/06/26 07:59:47;;;;;;;;;;;21.10;68.40;;;;;;4999478;28;19917;-89
2022/06/26 08:02:27;;;;;;;;;;;21.10;67.40;;;;;;4994503;28;20024;-90
2022/06/26 08:05:02;;;;;;;;;;;21.10;66.10;;;;;;4974060;28;19918;-90
2022/06/26 08:10:54;;;;;;;;;;;21.20;65.20;;;;;;4994183;28;19917;-90
2022/06/26 08:13:20;;;;;;;;;;;21.30;64.00;;;;;;4999960;28;19935;-90
2022/06/26 08:15:46;;;;;;;;;;;21.60;62.80;;;;;;5000206;28;19928;-90
2022/06/26 08:18:14;;;;;;;;;;;21.70;61.80;;;;;;4998227;28;19909;-90
2022/06/26 08:20:39;;;;;;;;;;;21.70;61.30;;;;;;4999102;28;19917;-90
2022/06/26 08:23:05;;;;;;;;;;;21.80;61.20;;;;;;5001426;28;19920;-91
2022/06/26 08:25:38;;;;;;;;;;;21.90;60.80;;;;;;5009904;28;19927;-89
2022/06/26 08:28:03;;;;;;;;;;;21.90;59.80;;;;;;5000483;28;19917;-89
2022/06/26 08:30:43;;;;;;;;;;;21.80;61.10;;;;;;5016509;28;19975;-88
2022/06/26 08:33:09;;;;;;;;;;;21.70;60.70;;;;;;4999862;28;19957;-89
2022/06/26 08:35:34;;;;;;;;;;;21.70;61.40;;;;;;4995936;28;20265;-89
2022/06/26 08:38:00;;;;;;;;;;;21.60;61.40;;;;;;5013522;28;19981;-90
2022/06/26 08:40:26;;;;;;;;;;;21.50;61.50;;;;;;5014051;28;19921;-90
2022/06/26 08:42:53;;;;;;;;;;;21.30;61.30;;;;;;5000623;28;19936;-91
2022/06/26 08:45:22;;;;;;;;;;;21.20;61.10;;;;;;5005636;28;19917;-91
2022/06/26 08:47:52;;;;;;;;;;;21.20;61.60;;;;;;4999410;28;19945;-90
2022/06/26 08:50:18;;;;;;;;;;;21.20;61.60;;;;;;5001634;28;20028;-90
2022/06/26 08:52:44;;;;;;;;;;;21.20;61.40;;;;;;4996474;28;19913;-90
2022/06/26 08:55:10;;;;;;;;;;;21.30;61.90;;;;;;5000207;28;20000;-90
2022/06/26 08:57:36;;;;;;;;;;;21.40;61.40;;;;;;4996965;28;19984;-90
2022/06/26 09:00:03;;;;;;;;;;;21.60;61.00;;;;;;4998349;28;19921;-90
2022/06/26 09:02:30;;;;;;;;;;;21.70;61.10;;;;;;4994237;28;20293;-90
2022/06/26 09:04:56;;;;;;;;;;;21.90;60.30;;;;;;5000963;28;19918;-90
2022/06/26 09:07:21;;;;;;;;;;;22.10;59.70;;;;;;5003093;28;19948;-89
2022/06/26 09:09:47;;;;;;;;;;;22.20;59.90;;;;;;4993647;28;19913;-89
2022/06/26 09:12:12;;;;;;;;;;;22.20;58.80;;;;;;4994592;28;19921;-85
2022/06/26 09:14:38;;;;;;;;;;;22.30;58.30;;;;;;4994211;28;19920;-85
2022/06/26 09:17:05;;;;;;;;;;;22.40;58.20;;;;;;5008164;28;20345;-86
2022/06/26 09:19:36;;;;;;;;;;;22.40;58.00;;;;;;5002283;28;19974;-85
2022/06/26 09:22:11;;;;;;;;;;;22.30;58.10;;;;;;4990072;28;20381;-83
2022/06/26 09:24:37;;;;;;;;;;;22.30;57.90;;;;;;5006677;28;20256;-83
2022/06/26 09:27:03;;;;;;;;;;;22.20;58.90;;;;;;5019242;28;20368;-85
2022/06/26 09:29:28;;;;;;;;;;;22.20;58.30;;;;;;5005206;28;19913;-84
2022/06/26 09:31:54;;;;;;;;;;;22.10;58.30;;;;;;5006065;28;19922;-85
2022/06/26 09:34:20;;;;;;;;;;;22.10;58.20;;;;;;5018248;28;19913;-85
2022/06/26 09:36:59;;;;;;;;;;;22.10;58.10;;;;;;5019259;28;19921;-83
2022/06/26 09:39:31;;;;;;;;;;;22.00;57.90;;;;;;5021524;28;19921;-92
2022/06/26 09:41:57;;;;;;;;;;;21.90;58.70;;;;;;5017655;28;19943;-87
2022/06/26 09:44:23;;;;;;;;;;;21.80;59.20;;;;;;4993767;28;19932;-84
2022/06/26 09:46:49;;;;;;;;;;;22.00;59.20;;;;;;4994647;28;20403;-82
2022/06/26 09:49:15;;;;;;;;;;;22.00;59.40;;;;;;5015617;28;19976;-81
2022/06/26 09:51:41;;;;;;;;;;;22.10;58.20;;;;;;5009875;28;19929;-82
2022/06/26 09:54:07;;;;;;;;;;;22.20;58.60;;;;;;5015631;28;20292;-83
2022/06/26 09:56:33;;;;;;;;;;;22.20;58.30;;;;;;5000239;28;19913;-82
2022/06/26 09:58:59;;;;;;;;;;;22.40;57.90;;;;;;5009030;28;19944;-83
2022/06/26 10:07:01;;;;;;;;;;;22.40;58.30;;;;;;5015408;28;19924;-85
2022/06/26 10:09:27;;;;;;;;;;;22.60;57.70;;;;;;4995134;28;19917;-86
2022/06/26 10:11:54;;;;;;;;;;;22.50;57.40;;;;;;5002842;28;20000;-90
2022/06/26 10:14:20;;;;;;;;;;;22.50;58.00;;;;;;5001011;28;20350;-89
2022/06/26 10:16:52;;;;;;;;;;;22.40;59.70;;;;;;4996616;28;19913;-91
2022/06/26 10:19:47;;;;;;;;;;;;;;;;;;;;;
2022/06/26 10:22:14;;;;;;;;;;;22.50;59.60;;;;;;5011129;28;19913;-87
2022/06/26 10:24:49;;;;;;;;;;;22.40;58.80;;;;;;5007341;28;20017;-88
2022/06/26 10:27:15;;;;;;;;;;;22.30;60.30;;;;;;4998443;28;19917;-90
2022/06/26 10:29:41;;;;;;;;;;;22.50;58.40;;;;;;4999401;28;19964;-88
2022/06/26 10:32:07;;;;;;;;;;;22.50;60.30;;;;;;4998757;28;19913;-88
2022/06/26 10:34:33;;;;;;;;;;;22.50;59.20;;;;;;5000882;28;19913;-89
2022/06/26 10:36:58;;;;;;;;;;;22.50;58.70;;;;;;5003416;28;19913;-88
2022/06/26 10:39:35;;;;;;;;;;;22.50;58.70;;;;;;4996448;28;19917;-87
2022/06/26 10:44:52;;;;;;;;;;;23.00;57.70;;;;;;5011045;28;19928;-86
2022/06/26 10:47:17;;;;;;;;;;;22.70;59.00;;;;;;5010566;28;19914;-88
2022/06/26 10:49:47;;;;;;;;;;;22.50;59.70;;;;;;4993174;28;19913;-85
2022/06/26 10:52:22;;;;;;;;;;;22.60;60.00;;;;;;4992093;28;19921;-87
2022/06/26 10:54:55;;;;;;;;;;;22.60;60.20;;;;;;5020278;28;19917;-86
2022/06/26 10:57:31;;;;;;;;;;;22.60;58.80;;;;;;5004399;28;19920;-86
2022/06/26 10:59:58;;;;;;;;;;;22.80;59.00;;;;;;5000234;28;19953;-88
2022/06/26 11:02:24;;;;;;;;;;;22.80;57.70;;;;;;5003180;28;19922;-87
2022/06/26 11:04:50;;;;;;;;;;;22.70;57.40;;;;;;4990461;28;20008;-87
2022/06/26 11:07:16;;;;;;;;;;;22.60;57.60;;;;;;4994890;28;20344;-88
2022/06/26 11:09:42;;;;;;;;;;;22.60;57.80;;;;;;4992858;28;20000;-88
2022/06/26 11:12:08;;;;;;;;;;;22.60;58.40;;;;;;5013372;28;19918;-90
2022/06/26 11:14:33;;;;;;;;;;;22.90;57.80;;;;;;4996394;28;19920;-83
2022/06/26 11:16:59;;;;;;;;;;;23.10;58.90;;;;;;5004563;28;20365;-84
2022/06/26 11:22:21;;;;;;;;;;;23.70;57.70;;;;;;5016213;28;19955;-87
2022/06/26 11:31:25;;;;;;;;;;;23.90;55.60;;;;;;5007819;28;19921;-86
2022/06/26 11:34:01;;;;;;;;;;;23.90;56.10;;;;;;4986202;28;20400;-86
2022/06/26 11:36:32;;;;;;;;;;;24.00;54.70;;;;;;4991570;28;20052;-88
2022/06/26 11:39:01;;;;;;;;;;;23.90;54.90;;;;;;4982523;28;19920;-88
2022/06/26 11:41:27;;;;;;;;;;;24.00;54.00;;;;;;4993430;28;19994;-89
2022/06/26 11:44:14;;;;;;;;;;;24.20;54.80;;;;;;5014058;28;19949;-90
2022/06/26 11:46:54;;;;;;;;;;;24.40;54.60;;;;;;4994001;28;19949;-89
2022/06/26 11:49:23;;;;;;;;;;;24.10;53.00;;;;;;4984622;28;20051;-91
2022/06/26 11:51:59;;;;;;;;;;;;;;;;;;;;;
2022/06/26 11:54:25;;;;;;;;;;;24.00;52.60;;;;;;5016999;28;19920;-86
2022/06/26 11:56:51;;;;;;;;;;;24.10;53.60;;;;;;5018772;22;19979;-83
2022/06/26 11:59:16;;;;;;;;;;;24.10;53.40;;;;;;5026968;28;19913;-84
2022/06/26 12:01:42;;;;;;;;;;;24.10;53.10;;;;;;5027682;28;20003;-84
2022/06/26 12:04:08;;;;;;;;;;;24.10;54.70;;;;;;5026687;28;19917;-85
2022/06/26 12:06:40;;;;;;;;;;;24.20;53.20;;;;;;5010477;28;20377;-86
2022/06/26 12:09:23;;;;;;;;;;;24.50;52.60;;;;;;4995257;28;19913;-86
2022/06/26 12:11:50;;;;;;;;;;;24.60;52.00;;;;;;4992157;28;20012;-85
2022/06/26 12:14:17;;;;;;;;;;;24.70;51.30;;;;;;5005595;28;19913;-87
2022/06/26 12:16:45;;;;;;;;;;;24.50;51.60;;;;;;5006532;28;19917;-85
2022/06/26 12:19:11;;;;;;;;;;;24.30;52.00;;;;;;4993340;28;19916;-88
2022/06/26 12:21:36;;;;;;;;;;;24.20;52.00;;;;;;5016387;28;19914;-86
2022/06/26 12:24:09;;;;;;;;;;;24.10;52.30;;;;;;5020994;28;19921;-86
2022/06/26 12:26:37;;;;;;;;;;;24.00;54.80;;;;;;4995086;28;19929;-87
2022/06/26 12:29:07;;;;;;;;;;;23.80;53.40;;;;;;5013600;28;19913;-85
2022/06/26 12:31:32;;;;;;;;;;;23.60;54.20;;;;;;5012155;28;19918;-86
2022/06/26 12:33:58;;;;;;;;;;;23.50;54.70;;;;;;4996106;28;19924;-86
2022/06/26 12:36:23;;;;;;;;;;;23.40;54.70;;;;;;4993930;28;20566;-86
2022/06/26 12:38:51;;;;;;;;;;;23.30;53.80;;;;;;5012913;28;19921;-85
2022/06/26 12:41:16;;;;;;;;;;;23.30;54.60;;;;;;5012799;28;19916;-86
2022/06/26 12:43:46;;;;;;;;;;;23.20;54.10;;;;;;5011802;28;19917;-86
2022/06/26 12:46:11;;;;;;;;;;;23.10;54.80;;;;;;4988203;28;19918;-85
2022/06/26 12:48:37;;;;;;;;;;;23.20;55.70;;;;;;5001701;28;20390;-86
2022/06/26 12:51:02;;;;;;;;;;;23.20;56.30;;;;;;4989461;28;19927;-86
2022/06/26 12:53:28;;;;;;;;;;;23.40;56.30;;;;;;5016423;28;19979;-86
2022/06/26 12:55:53;;;;;;;;;;;23.60;55.50;;;;;;4990664;28;19983;-86
2022/06/26 12:58:19;;;;;;;;;;;23.60;55.70;;;;;;4989515;28;19913;-86
2022/06/26 13:00:45;;;;;;;;;;;23.50;56.00;;;;;;4989249;28;19961;-86
2022/06/26 13:03:11;;;;;;;;;;;23.50;57.60;;;;;;4998205;28;19964;-86
2022/06/26 13:05:37;;;;;;;;;;;23.50;59.60;;;;;;5019138;28;19925;-86
2022/06/26 13:08:02;;;;;;;;;;;23.50;60.00;;;;;;5013127;28;20405;-87
2022/06/26 13:10:28;;;;;;;;;;;23.50;60.70;;;;;;5004176;28;19917;-87
2022/06/26 13:12:53;;;;;;;;;;;23.40;61.80;;;;;;5001969;28;20395;-85
2022/06/26 13:15:19;;;;;;;;;;;23.30;62.00;;;;;;5007338;28;20040;-84
2022/06/26 13:17:44;;;;;;;;;;;23.30;61.60;;;;;;4982382;28;19933;-84
2022/06/26 13:20:10;;;;;;;;;;;23.10;59.80;;;;;;4982911;28;19945;-85
2022/06/26 13:22:36;;;;;;;;;;;23.00;60.50;;;;;;5009928;28;19918;-81
2022/06/26 13:25:01;;;;;;;;;;;23.00;59.40;;;;;;4998608;28;20407;-81
2022/06/26 13:27:27;;;;;;;;;;;22.90;61.30;;;;;;5009188;28;19913;-81
2022/06/26 13:29:52;;;;;;;;;;;22.80;60.00;;;;;;4997930;28;19931;-79
2022/06/26 13:32:18;;;;;;;;;;;22.70;62.40;;;;;;5012400;28;20314;-85
2022/06/26 13:34:43;;;;;;;;;;;22.70;63.00;;;;;;5001904;28;20008;-84
2022/06/26 13:37:09;;;;;;;;;;;22.90;62.00;;;;;;4989043;28;19917;-82
2022/06/26 13:39:34;;;;;;;;;;;23.00;59.70;;;;;;4998636;28;20876;-85
2022/06/26 13:42:00;;;;;;;;;;;23.20;59.10;;;;;;5013833;28;20381;-85
2022/06/26 13:44:25;;;;;;;;;;;23.40;62.00;;;;;;5014303;28;19964;-85
2022/06/26 13:46:50;;;;;;;;;;;23.40;61.10;;;;;;4993279;28;20397;-84
2022/06/26 13:49:16;;;;;;;;;;;23.60;60.90;;;;;;5015129;28;19953;-85
2022/06/26 13:51:41;;;;;;;;;;;23.50;59.00;;;;;;4991428;28;19921;-86
2022/06/26 13:54:07;;;;;;;;;;;23.50;59.60;;;;;;4992002;28;19945;-86
2022/06/26 13:56:33;;;;;;;;;;;23.30;60.60;;;;;;5013775;28;20044;-85
2022/06/26 13:58:58;;;;;;;;;;;23.30;61.00;;;;;;5016996;28;19914;-85
2022/06/26 14:01:24;;;;;;;;;;;23.30;60.90;;;;;;5014435;28;19913;-82
2022/06/26 14:03:50;;;;;;;;;;;23.30;60.60;;;;;;4988294;28;19924;-80
2022/06/26 14:06:16;;;;;;;;;;;23.50;60.40;;;;;;4988524;28;20095;-80
2022/06/26 14:08:42;;;;;;;;;;;23.50;61.90;;;;;;4993944;28;20270;-80
2022/06/26 14:11:07;;;;;;;;;;;23.60;64.10;;;;;;4988308;28;20015;-82
2022/06/26 14:13:33;;;;;;;;;;;23.50;63.00;;;;;;4992418;28;19913;-80
2022/06/26 14:15:58;;;;;;;;;;;23.40;62.00;;;;;;4987382;28;19917;-83
2022/06/26 14:18:24;;;;;;;;;;;23.40;63.20;;;;;;4989902;28;20436;-82
2022/06/26 14:20:50;;;;;;;;;;;23.50;63.90;;;;;;4988891;28;19918;-81
2022/06/26 14:26:03;;;;;;;;;;;23.70;59.90;;;;;;5002633;28;20036;-81
2022/06/26 14:28:30;;;;;;;;;;;23.80;60.70;;;;;;5001583;28;20518;-81
2022/06/26 14:30:57;;;;;;;;;;;23.90;60.30;;;;;;4980430;28;19922;-80
2022/06/26 14:33:23;;;;;;;;;;;23.80;60.80;;;;;;4999129;28;19953;-81
2022/06/26 14:35:48;;;;;;;;;;;23.70;60.50;;;;;;5001357;28;20349;-81
2022/06/26 14:38:14;;;;;;;;;;;23.60;60.00;;;;;;4980246;28;19920;-80
2022/06/26 14:40:39;;;;;;;;;;;23.50;60.40;;;;;;4985607;28;20404;-81
2022/06/26 14:43:05;;;;;;;;;;;23.30;61.30;;;;;;4984450;28;19936;-81
2022/06/26 14:45:31;;;;;;;;;;;23.20;62.70;;;;;;4989708;28;20024;-81
2022/06/26 14:47:56;;;;;;;;;;;23.10;63.20;;;;;;5000147;28;19975;-82
2022/06/26 14:50:22;;;;;;;;;;;22.90;64.10;;;;;;4969695;28;19921;-82
2022/06/26 14:52:48;;;;;;;;;;;22.80;64.30;;;;;;4987686;28;19918;-82
2022/06/26 14:55:13;;;;;;;;;;;22.60;63.20;;;;;;4991148;28;19914;-81
2022/06/26 14:57:39;;;;;;;;;;;22.50;64.30;;;;;;5007895;28;19928;-81
2022/06/26 15:00:05;;;;;;;;;;;22.50;64.50;;;;;;4987187;28;19917;-81
2022/06/26 15:02:31;;;;;;;;;;;22.50;64.90;;;;;;5006957;28;19991;-79
2022/06/26 15:04:56;;;;;;;;;;;22.50;64.40;;;;;;4977073;28;20383;-81
2022/06/26 15:07:22;;;;;;;;;;;22.50;63.30;;;;;;4985771;28;19913;-81